Flight Track Log - Related Links

Times and Time Zones

All times are in EST time to prevent confusion due to time zone crossing. See the C-GGBL flight status page for this flight to view local times or setup timezone preferences in your user account.

Time Position Orientation Groundspeed Altitude Reporting Facility
EST Latitude Longitude Course Direction KTS MPH feet Rate Location/Type
Sat 05:08:27 PM 27.5222 -88.3858 161° South 449 517 41,000  Level Houston Center
Sat 05:09:28 PM 27.4028 -88.3392 161° South 452 520 41,000  Level Houston Center
Sat 05:10:30 PM 27.2589 -88.2831 161° South 455 524 41,000  Level Houston Center
Sat 05:11:32 PM 27.1389 -88.2356 161° South 456 525 41,000  Level Houston Center
Sat 05:12:34 PM 27.0194 -88.1875 160° South 455 524 41,000  Level Houston Center
Sat 05:13:36 PM 26.8892 -88.1353 160° South 458 527 41,000  Level Houston Center
Sat 05:14:38 PM 26.7692 -88.0897 161° South 458 527 41,000  Level Houston Center
Sat 05:15:40 PM 26.6497 -88.0433 161° South 457 526 41,000  Level Houston Center
Sat 05:16:42 PM 26.5308 -87.9997 162° South 453 521 41,000  Level Houston Center
Sat 05:17:44 PM 26.3947 -87.9522 163° South 452 520 41,000  Level Houston Center
Sat 05:19:00 PM 26.2441 -87.8862 161° South  Level FlightAware Approximate
Sat 05:26:00 PM 25.4025 -87.5546 160° South  Level FlightAware Approximate
Sat 05:27:00 PM 25.2823 -87.5075 160° South  Level FlightAware Approximate
Sat 05:28:00 PM 25.1620 -87.4604 160° South  Level FlightAware Approximate
Sat 05:29:00 PM 25.0417 -87.4136 161° South  Level FlightAware Approximate
Sat 05:30:00 PM 24.9208 -87.3687 161° South  Level FlightAware Approximate
Sat 05:31:00 PM 24.7999 -87.3238 161° South  Level FlightAware Approximate
Sat 05:32:00 PM 24.6790 -87.2791 161° South  Level FlightAware Approximate
Sat 05:33:00 PM 24.5580 -87.2344 161° South  Level FlightAware Approximate
Sat 05:34:00 PM 24.4371 -87.1899 161° South  Level FlightAware Approximate
Sat 05:35:00 PM 24.3161 -87.1454 161° South  Level FlightAware Approximate
Sat 05:36:00 PM 24.1976 -87.0938 157° South  Level FlightAware Approximate
Sat 05:37:00 PM 24.0800 -87.0396 157° South  Level FlightAware Approximate
Sat 05:38:00 PM 23.9624 -86.9855 157° South  Level FlightAware Approximate
Sat 05:39:00 PM 23.8448 -86.9315 157° South  Level FlightAware Approximate
Sat 05:40:00 PM 23.7271 -86.8776 157° South  Level FlightAware Approximate
Sat 05:41:00 PM 23.6095 -86.8238 157° South  Level FlightAware Approximate
Sat 05:42:00 PM 23.4918 -86.7701 157° South  Level FlightAware Approximate
Sat 05:43:00 PM 23.3741 -86.7165 157° South  Level FlightAware Approximate
Sat 05:44:00 PM 23.2564 -86.6630 157° South  Level FlightAware Approximate
Sat 05:45:00 PM 23.1386 -86.6096 157° South  Level FlightAware Approximate
Sat 05:46:00 PM 23.0209 -86.5563 157° South  Level FlightAware Approximate
Sat 05:47:00 PM 22.9031 -86.5030 157° South  Level FlightAware Approximate
Sat 05:48:00 PM 22.7853 -86.4499 157° South  Level FlightAware Approximate
Sat 05:49:00 PM 22.6675 -86.3969 157° South  Level FlightAware Approximate
Sat 05:50:00 PM 22.5497 -86.3439 157° South  Level FlightAware Approximate
Sat 05:51:00 PM 22.4318 -86.2910 157° South  Level FlightAware Approximate
Sat 05:52:00 PM 22.3139 -86.2383 157° South  Level FlightAware Approximate
Sat 05:53:00 PM 22.1961 -86.1856 158° South  Level FlightAware Approximate
Sat 05:54:00 PM 22.0782 -86.1330 158° South  Level FlightAware Approximate
Sat 05:55:00 PM 21.9602 -86.0805 158° South  Level FlightAware Approximate
Sat 05:56:00 PM 21.8424 -86.0279 158° South  Level FlightAware Approximate
Sat 05:57:00 PM 21.7244 -85.9755 158° South  Level FlightAware Approximate
Sat 05:58:00 PM 21.6065 -85.9232 158° South  Level FlightAware Approximate
Sat 05:59:00 PM 21.4886 -85.8709 158° South  Level FlightAware Approximate
Sat 06:00:00 PM 21.3706 -85.8189 158° South  Level FlightAware Approximate
Sat 06:01:00 PM 21.2525 -85.7669 158° South  Level FlightAware Approximate
Sat 06:02:00 PM 21.1345 -85.7150 158° South  Level FlightAware Approximate
Sat 06:03:00 PM 21.0165 -85.6632 158° South  Level FlightAware Approximate
Sat 06:04:00 PM 20.8984 -85.6114 158° South  Level FlightAware Approximate
Sat 06:05:00 PM 20.7803 -85.5598 158° South  Level FlightAware Approximate
Sat 06:06:00 PM 20.6622 -85.5082 158° South  Level FlightAware Approximate
Sat 06:07:00 PM 20.5441 -85.4567 158° South  Level FlightAware Approximate
Sat 06:08:00 PM 20.4260 -85.4053 158° South  Level FlightAware Approximate
Sat 06:09:00 PM 20.3078 -85.3540 158° South  Level FlightAware Approximate
Sat 06:10:00 PM 20.1897 -85.3027 158° South  Level FlightAware Approximate
Sat 06:11:00 PM 20.1464 -85.1813 102° East  Level FlightAware Approximate
Sat 06:12:00 PM 20.1198 -85.0484 102° East  Level FlightAware Approximate
Sat 06:13:00 PM 20.0932 -84.9156 102° East  Level FlightAware Approximate
Sat 06:14:00 PM 20.0652 -84.7831 103° East  Level FlightAware Approximate
Sat 06:15:00 PM 20.0363 -84.6508 103° East  Level FlightAware Approximate
Sat 06:16:00 PM 20.0074 -84.5186 103° East  Level FlightAware Approximate
Sat 06:17:00 PM 19.9783 -84.3864 103° East  Level FlightAware Approximate
Sat 06:18:00 PM 19.9492 -84.2542 103° East  Level FlightAware Approximate
Sat 06:19:00 PM 19.9201 -84.1221 103° East  Level FlightAware Approximate
Sat 06:20:00 PM 19.8908 -83.9901 103° East  Level FlightAware Approximate
Sat 06:21:00 PM 19.8615 -83.8581 103° East  Level FlightAware Approximate
Sat 06:22:00 PM 19.8320 -83.7261 103° East  Level FlightAware Approximate
Sat 06:23:00 PM 19.8024 -83.5942 103° East  Level FlightAware Approximate
Sat 06:24:00 PM 19.7722 -83.4625 104° East  Level FlightAware Approximate
Sat 06:25:00 PM 19.7420 -83.3308 103° East  Level FlightAware Approximate
Sat 06:26:00 PM 19.7123 -83.1990 105° East  Level FlightAware Approximate
Sat 06:27:00 PM 19.6833 -83.0696 90° East  Level FlightAware Approximate
Sat 06:28:00 PM 19.6502 -82.9396 108° East  Level FlightAware Approximate
Sat 06:29:00 PM 19.6208 -82.8081 100° East  Level FlightAware Approximate
Sat 06:30:00 PM 19.5979 -82.6749 105° East  Level FlightAware Approximate
Sat 06:31:00 PM 19.5646 -82.5442 105° East  Level FlightAware Approximate
Sat 06:32:00 PM 19.5309 -82.4137 105° East  Level FlightAware Approximate
Sat 06:33:00 PM 19.4970 -82.2832 105° East  Level FlightAware Approximate
Sat 06:34:00 PM 19.4649 -82.1524 98° East  Level FlightAware Approximate
Sat 06:35:00 PM 19.4433 -82.0199 118° Southeast  Level FlightAware Approximate
Sat 06:36:00 PM 19.4098 -81.8901 103° East  Level FlightAware Approximate
Sat 06:37:00 PM 19.3808 -81.7584 108° East  Level FlightAware Approximate
Sat 06:38:00 PM 19.3422 -81.6295 108° East  Level FlightAware Approximate
Sat 06:39:00 PM 19.3130 -81.4985 102° East  Level FlightAware Approximate
Sat 06:40:00 PM 19.2834 -81.3671 105° East  Level FlightAware Approximate
Sat 06:41:00 PM 19.2928 -81.3577 137° Southeast  Level Estimated
Sat 06:42:00 PM 19.2928 -81.3577 137° Southeast  Level Estimated
Sat 06:43:00 PM 19.2928 -81.3577 137° Southeast  Level Estimated
Sat 06:44:00 PM 19.2928 -81.3577 137° Southeast  Level Estimated
Sat 06:45:00 PM 19.2928 -81.3577 137° Southeast  Level Estimated
Sat 06:46:00 PM 19.2928 -81.3577 137° Southeast  Level Estimated
Sat 06:47:00 PM 19.2928 -81.3577 137° Southeast  Level Estimated
Sat 06:48:00 PM 19.2928 -81.3577 137° Southeast  Level Estimated
Sat 06:49:00 PM 19.2928 -81.3577 137° Southeast  Level Estimated
Sat 06:50:00 PM 19.2928 -81.3577 137° Southeast  Level Estimated
Sat 06:51:00 PM 19.2928 -81.3577 137° Southeast  Level Estimated
Sat 06:52:00 PM 19.2928 -81.3577 137° Southeast  Level Estimated
Sat 06:53:00 PM 19.2928 -81.3577 137° Southeast  Level Estimated
Sat 06:54:00 PM 19.2928 -81.3577 137° Southeast  Level Estimated
Sat 06:55:00 PM 19.2928 -81.3577 137° Southeast  Level Estimated
Sat 06:56:00 PM 19.2928 -81.3577 137° Southeast  Level Estimated
Sat 06:57:00 PM 19.2928 -81.3577 137° Southeast  Level Estimated
Sat 06:58:00 PM 19.2928 -81.3577 137° Southeast  Level Estimated
Sat 06:59:00 PM 19.2928 -81.3577 137° Southeast  Level Estimated
Sat 07:00:00 PM 19.2928 -81.3577 137° Southeast  Level Estimated
Sat 07:01:00 PM 19.2928 -81.3577 137° Southeast  Level Estimated
Sat 07:02:00 PM 19.2928 -81.3577 137° Southeast  Level Estimated
Sat 07:03:00 PM 19.2928 -81.3577 137° Southeast  Level Estimated
Sat 07:04:00 PM 19.2928 -81.3577 137° Southeast  Level Estimated
Sat 07:05:00 PM 19.2928 -81.3577 137° Southeast  Level Estimated

Login

Don't have an account? Register now (free) for customized features, flight alerts, and more!